sensor_id;sensor_type;location;lat;lon;timestamp;temperature;humidity
9450;DHT22;4763;48.370;10.874;2023-07-28T00:02:06;15.70;99.90
9450;DHT22;4763;48.370;10.874;2023-07-28T00:04:34;15.60;99.90
9450;DHT22;4763;48.370;10.874;2023-07-28T00:07:01;15.70;99.90
9450;DHT22;4763;48.370;10.874;2023-07-28T00:09:28;15.70;99.90
9450;DHT22;4763;48.370;10.874;2023-07-28T00:11:56;15.60;99.90
9450;DHT22;4763;48.370;10.874;2023-07-28T00:14:24;15.60;99.90
9450;DHT22;4763;48.370;10.874;2023-07-28T00:16:52;15.50;99.90
9450;DHT22;4763;48.370;10.874;2023-07-28T00:19:20;15.50;99.90
9450;DHT22;4763;48.370;10.874;2023-07-28T00:21:47;15.40;99.90
9450;DHT22;4763;48.370;10.874;2023-07-28T00:24:14;15.40;99.90
9450;DHT22;4763;48.370;10.874;2023-07-28T00:26:41;15.30;99.90
9450;DHT22;4763;48.370;10.874;2023-07-28T00:29:08;15.30;99.90
9450;DHT22;4763;48.370;10.874;2023-07-28T00:31:36;15.30;99.90
9450;DHT22;4763;48.370;10.874;2023-07-28T00:34:03;15.20;99.90
9450;DHT22;4763;48.370;10.874;2023-07-28T00:36:30;15.20;99.90
9450;DHT22;4763;48.370;10.874;2023-07-28T00:38:58;15.10;99.90
9450;DHT22;4763;48.370;10.874;2023-07-28T00:41:25;15.10;99.90
9450;DHT22;4763;48.370;10.874;2023-07-28T00:43:53;15.10;99.90
9450;DHT22;4763;48.370;10.874;2023-07-28T00:46:20;15.00;99.90
9450;DHT22;4763;48.370;10.874;2023-07-28T00:48:48;15.00;99.90
9450;DHT22;4763;48.370;10.874;2023-07-28T00:51:17;15.00;99.90
9450;DHT22;4763;48.370;10.874;2023-07-28T00:53:44;15.10;99.90
9450;DHT22;4763;48.370;10.874;2023-07-28T00:56:11;15.10;99.90
9450;DHT22;4763;48.370;10.874;2023-07-28T00:58:38;15.10;99.90
9450;DHT22;4763;48.370;10.874;2023-07-28T01:01:05;15.10;99.90
9450;DHT22;4763;48.370;10.874;2023-07-28T01:03:32;15.10;99.90
9450;DHT22;4763;48.370;10.874;2023-07-28T01:06:10;15.00;99.90
9450;DHT22;4763;48.370;10.874;2023-07-28T01:08:46;15.00;99.90
9450;DHT22;4763;48.370;10.874;2023-07-28T01:11:14;15.00;99.90
9450;DHT22;4763;48.370;10.874;2023-07-28T01:13:41;15.00;99.90
9450;DHT22;4763;48.370;10.874;2023-07-28T01:16:08;15.00;99.90
9450;DHT22;4763;48.370;10.874;2023-07-28T01:18:35;15.00;99.90
9450;DHT22;4763;48.370;10.874;2023-07-28T01:21:06;14.90;99.90
9450;DHT22;4763;48.370;10.874;2023-07-28T01:23:40;14.90;99.90
9450;DHT22;4763;48.370;10.874;2023-07-28T01:26:09;14.90;99.90
9450;DHT22;4763;48.370;10.874;2023-07-28T01:28:38;15.00;99.90
9450;DHT22;4763;48.370;10.874;2023-07-28T01:31:07;14.90;99.90
9450;DHT22;4763;48.370;10.874;2023-07-28T01:33:34;14.90;99.90
9450;DHT22;4763;48.370;10.874;2023-07-28T01:36:01;14.80;99.90
9450;DHT22;4763;48.370;10.874;2023-07-28T01:38:28;14.80;99.90
9450;DHT22;4763;48.370;10.874;2023-07-28T01:40:55;14.80;99.90
9450;DHT22;4763;48.370;10.874;2023-07-28T01:43:22;14.80;99.90
9450;DHT22;4763;48.370;10.874;2023-07-28T01:45:50;14.70;99.90
9450;DHT22;4763;48.370;10.874;2023-07-28T01:48:17;14.70;99.90
9450;DHT22;4763;48.370;10.874;2023-07-28T01:50:44;14.60;99.90
9450;DHT22;4763;48.370;10.874;2023-07-28T01:53:11;14.60;99.90
9450;DHT22;4763;48.370;10.874;2023-07-28T01:55:37;14.60;99.90
9450;DHT22;4763;48.370;10.874;2023-07-28T01:58:04;14.60;99.90
9450;DHT22;4763;48.370;10.874;2023-07-28T02:00:31;14.60;99.90
9450;DHT22;4763;48.370;10.874;2023-07-28T02:02:59;14.50;99.90
9450;DHT22;4763;48.370;10.874;2023-07-28T02:05:27;14.60;99.90
9450;DHT22;4763;48.370;10.874;2023-07-28T02:07:54;14.50;99.90
9450;DHT22;4763;48.370;10.874;2023-07-28T02:10:22;14.50;99.90
9450;DHT22;4763;48.370;10.874;2023-07-28T02:12:48;14.50;99.90
9450;DHT22;4763;48.370;10.874;2023-07-28T02:15:15;14.40;99.90
9450;DHT22;4763;48.370;10.874;2023-07-28T02:17:42;14.40;99.90
9450;DHT22;4763;48.370;10.874;2023-07-28T02:20:10;14.40;99.90
9450;DHT22;4763;48.370;10.874;2023-07-28T02:22:38;14.30;99.90
9450;DHT22;4763;48.370;10.874;2023-07-28T02:25:06;14.20;99.90
9450;DHT22;4763;48.370;10.874;2023-07-28T02:27:32;14.20;99.90
9450;DHT22;4763;48.370;10.874;2023-07-28T02:29:59;14.10;99.90
9450;DHT22;4763;48.370;10.874;2023-07-28T02:32:26;14.10;99.90
9450;DHT22;4763;48.370;10.874;2023-07-28T02:34:54;14.10;99.90
9450;DHT22;4763;48.370;10.874;2023-07-28T02:37:22;14.10;99.90
9450;DHT22;4763;48.370;10.874;2023-07-28T02:39:49;14.10;99.90
9450;DHT22;4763;48.370;10.874;2023-07-28T02:42:15;14.00;99.90
9450;DHT22;4763;48.370;10.874;2023-07-28T02:44:42;13.90;99.90
9450;DHT22;4763;48.370;10.874;2023-07-28T02:47:09;13.90;99.90
9450;DHT22;4763;48.370;10.874;2023-07-28T02:49:36;13.90;99.90
9450;DHT22;4763;48.370;10.874;2023-07-28T02:52:03;13.90;99.90
9450;DHT22;4763;48.370;10.874;2023-07-28T02:54:31;13.90;99.90
9450;DHT22;4763;48.370;10.874;2023-07-28T02:56:57;13.80;99.90
9450;DHT22;4763;48.370;10.874;2023-07-28T02:59:24;13.80;99.90
9450;DHT22;4763;48.370;10.874;2023-07-28T03:01:51;13.90;99.90
9450;DHT22;4763;48.370;10.874;2023-07-28T03:04:18;13.80;99.90
9450;DHT22;4763;48.370;10.874;2023-07-28T03:06:45;13.80;99.90
9450;DHT22;4763;48.370;10.874;2023-07-28T03:09:13;13.80;99.90
9450;DHT22;4763;48.370;10.874;2023-07-28T03:11:42;13.80;99.90
9450;DHT22;4763;48.370;10.874;2023-07-28T03:14:08;13.80;99.90
9450;DHT22;4763;48.370;10.874;2023-07-28T03:16:35;13.90;99.90
9450;DHT22;4763;48.370;10.874;2023-07-28T03:19:02;13.90;99.90
9450;DHT22;4763;48.370;10.874;2023-07-28T03:21:30;14.00;99.90
9450;DHT22;4763;48.370;10.874;2023-07-28T03:23:56;14.00;99.90
9450;DHT22;4763;48.370;10.874;2023-07-28T03:26:23;14.00;99.90
9450;DHT22;4763;48.370;10.874;2023-07-28T03:28:51;14.10;99.90
9450;DHT22;4763;48.370;10.874;2023-07-28T03:31:18;14.10;99.90
9450;DHT22;4763;48.370;10.874;2023-07-28T03:33:45;14.10;99.90
9450;DHT22;4763;48.370;10.874;2023-07-28T03:36:12;14.10;99.90
9450;DHT22;4763;48.370;10.874;2023-07-28T03:38:39;14.00;99.90
9450;DHT22;4763;48.370;10.874;2023-07-28T03:41:05;14.00;99.90
9450;DHT22;4763;48.370;10.874;2023-07-28T03:43:32;14.00;99.90
9450;DHT22;4763;48.370;10.874;2023-07-28T03:46:00;14.00;99.90
9450;DHT22;4763;48.370;10.874;2023-07-28T03:48:27;14.00;99.90
9450;DHT22;4763;48.370;10.874;2023-07-28T03:50:54;14.00;99.90
9450;DHT22;4763;48.370;10.874;2023-07-28T03:53:21;14.10;99.90
9450;DHT22;4763;48.370;10.874;2023-07-28T03:55:48;14.10;99.90
9450;DHT22;4763;48.370;10.874;2023-07-28T03:58:15;14.10;99.90
9450;DHT22;4763;48.370;10.874;2023-07-28T04:00:41;14.10;99.90
9450;DHT22;4763;48.370;10.874;2023-07-28T04:03:09;14.20;99.90
9450;DHT22;4763;48.370;10.874;2023-07-28T04:05:36;14.30;99.90
9450;DHT22;4763;48.370;10.874;2023-07-28T04:08:03;14.40;99.90
9450;DHT22;4763;48.370;10.874;2023-07-28T04:10:30;14.40;99.90
9450;DHT22;4763;48.370;10.874;2023-07-28T04:12:57;14.50;99.90
9450;DHT22;4763;48.370;10.874;2023-07-28T04:15:24;14.40;99.90
9450;DHT22;4763;48.370;10.874;2023-07-28T04:17:51;14.50;99.90
9450;DHT22;4763;48.370;10.874;2023-07-28T04:20:19;14.50;99.90
9450;DHT22;4763;48.370;10.874;2023-07-28T04:22:46;14.40;99.90
9450;DHT22;4763;48.370;10.874;2023-07-28T04:25:12;14.40;99.90
9450;DHT22;4763;48.370;10.874;2023-07-28T04:27:39;14.40;99.90
9450;DHT22;4763;48.370;10.874;2023-07-28T04:30:07;14.40;99.90
9450;DHT22;4763;48.370;10.874;2023-07-28T04:32:33;14.40;99.90
9450;DHT22;4763;48.370;10.874;2023-07-28T04:35:02;14.50;99.90
9450;DHT22;4763;48.370;10.874;2023-07-28T04:37:32;14.50;99.90
9450;DHT22;4763;48.370;10.874;2023-07-28T04:39:58;14.50;99.90
9450;DHT22;4763;48.370;10.874;2023-07-28T04:42:25;14.50;99.90
9450;DHT22;4763;48.370;10.874;2023-07-28T04:44:52;14.50;99.90
9450;DHT22;4763;48.370;10.874;2023-07-28T04:47:19;14.60;99.90
9450;DHT22;4763;48.370;10.874;2023-07-28T04:49:45;14.60;99.90
9450;DHT22;4763;48.370;10.874;2023-07-28T04:52:12;14.60;99.90
9450;DHT22;4763;48.370;10.874;2023-07-28T04:54:41;14.70;99.90
9450;DHT22;4763;48.370;10.874;2023-07-28T04:57:07;14.70;99.90
9450;DHT22;4763;48.370;10.874;2023-07-28T04:59:34;14.80;99.90
9450;DHT22;4763;48.370;10.874;2023-07-28T05:02:01;14.80;99.90
9450;DHT22;4763;48.370;10.874;2023-07-28T05:04:28;14.80;99.90
9450;DHT22;4763;48.370;10.874;2023-07-28T05:06:55;14.80;99.90
9450;DHT22;4763;48.370;10.874;2023-07-28T05:09:21;14.80;99.90
9450;DHT22;4763;48.370;10.874;2023-07-28T05:11:49;14.80;99.90
9450;DHT22;4763;48.370;10.874;2023-07-28T05:14:16;14.80;99.90
9450;DHT22;4763;48.370;10.874;2023-07-28T05:16:43;14.90;99.90
9450;DHT22;4763;48.370;10.874;2023-07-28T05:19:09;14.90;99.90
9450;DHT22;4763;48.370;10.874;2023-07-28T05:21:36;15.30;99.90
9450;DHT22;4763;48.370;10.874;2023-07-28T05:24:03;15.50;99.90
9450;DHT22;4763;48.370;10.874;2023-07-28T05:26:32;15.90;99.90
9450;DHT22;4763;48.370;10.874;2023-07-28T05:29:00;16.20;99.90
9450;DHT22;4763;48.370;10.874;2023-07-28T05:31:29;16.40;99.90
9450;DHT22;4763;48.370;10.874;2023-07-28T05:33:55;16.60;99.90
9450;DHT22;4763;48.370;10.874;2023-07-28T05:36:23;16.70;99.90
9450;DHT22;4763;48.370;10.874;2023-07-28T05:38:50;16.80;99.90
9450;DHT22;4763;48.370;10.874;2023-07-28T05:41:19;16.90;99.90
9450;DHT22;4763;48.370;10.874;2023-07-28T05:43:46;17.10;99.90
9450;DHT22;4763;48.370;10.874;2023-07-28T05:46:14;17.10;99.90
9450;DHT22;4763;48.370;10.874;2023-07-28T05:48:41;17.20;99.90
9450;DHT22;4763;48.370;10.874;2023-07-28T05:51:07;17.20;99.90
9450;DHT22;4763;48.370;10.874;2023-07-28T05:53:34;17.20;99.90
9450;DHT22;4763;48.370;10.874;2023-07-28T05:56:01;17.30;99.90
9450;DHT22;4763;48.370;10.874;2023-07-28T05:58:28;17.50;99.90
9450;DHT22;4763;48.370;10.874;2023-07-28T06:00:54;17.60;99.90
9450;DHT22;4763;48.370;10.874;2023-07-28T06:03:22;17.60;99.90
9450;DHT22;4763;48.370;10.874;2023-07-28T06:05:49;17.70;99.90
9450;DHT22;4763;48.370;10.874;2023-07-28T06:08:16;17.70;99.90
9450;DHT22;4763;48.370;10.874;2023-07-28T06:10:45;17.90;99.90
9450;DHT22;4763;48.370;10.874;2023-07-28T06:13:12;18.00;99.90
9450;DHT22;4763;48.370;10.874;2023-07-28T06:15:39;18.10;99.90
9450;DHT22;4763;48.370;10.874;2023-07-28T06:18:06;18.20;99.90
9450;DHT22;4763;48.370;10.874;2023-07-28T06:20:34;18.20;99.90
9450;DHT22;4763;48.370;10.874;2023-07-28T06:23:01;18.40;99.90
9450;DHT22;4763;48.370;10.874;2023-07-28T06:25:29;18.50;99.90
9450;DHT22;4763;48.370;10.874;2023-07-28T06:27:56;18.70;99.90
9450;DHT22;4763;48.370;10.874;2023-07-28T06:30:24;18.90;99.90
9450;DHT22;4763;48.370;10.874;2023-07-28T06:32:51;19.30;99.90
9450;DHT22;4763;48.370;10.874;2023-07-28T06:35:18;19.50;99.90
9450;DHT22;4763;48.370;10.874;2023-07-28T06:37:46;19.80;99.90
9450;DHT22;4763;48.370;10.874;2023-07-28T06:40:13;20.00;99.90
9450;DHT22;4763;48.370;10.874;2023-07-28T06:42:41;20.10;99.90
9450;DHT22;4763;48.370;10.874;2023-07-28T06:45:09;20.10;99.90
9450;DHT22;4763;48.370;10.874;2023-07-28T06:47:35;20.00;99.90
9450;DHT22;4763;48.370;10.874;2023-07-28T06:50:02;20.10;99.90
9450;DHT22;4763;48.370;10.874;2023-07-28T06:52:30;20.20;99.90
9450;DHT22;4763;48.370;10.874;2023-07-28T06:54:59;20.30;99.90
9450;DHT22;4763;48.370;10.874;2023-07-28T06:57:25;20.30;99.90
9450;DHT22;4763;48.370;10.874;2023-07-28T06:59:52;20.40;99.90
9450;DHT22;4763;48.370;10.874;2023-07-28T07:02:19;20.50;99.90
9450;DHT22;4763;48.370;10.874;2023-07-28T07:04:46;20.50;99.90
9450;DHT22;4763;48.370;10.874;2023-07-28T07:07:12;20.60;99.90
9450;DHT22;4763;48.370;10.874;2023-07-28T07:09:39;20.70;99.90
9450;DHT22;4763;48.370;10.874;2023-07-28T07:12:08;20.70;99.90
9450;DHT22;4763;48.370;10.874;2023-07-28T07:14:35;20.80;99.90
9450;DHT22;4763;48.370;10.874;2023-07-28T07:17:02;20.90;99.90
9450;DHT22;4763;48.370;10.874;2023-07-28T07:19:29;20.90;99.90
9450;DHT22;4763;48.370;10.874;2023-07-28T07:21:56;20.90;99.90
9450;DHT22;4763;48.370;10.874;2023-07-28T07:24:23;20.80;99.90
9450;DHT22;4763;48.370;10.874;2023-07-28T07:26:49;20.80;99.90
9450;DHT22;4763;48.370;10.874;2023-07-28T07:29:18;20.80;99.90
9450;DHT22;4763;48.370;10.874;2023-07-28T07:31:45;20.80;99.90
9450;DHT22;4763;48.370;10.874;2023-07-28T07:34:12;20.80;99.90
9450;DHT22;4763;48.370;10.874;2023-07-28T07:36:38;21.00;99.90
9450;DHT22;4763;48.370;10.874;2023-07-28T07:39:05;21.00;99.90
9450;DHT22;4763;48.370;10.874;2023-07-28T07:41:33;21.10;99.90
9450;DHT22;4763;48.370;10.874;2023-07-28T07:44:00;21.20;99.90
9450;DHT22;4763;48.370;10.874;2023-07-28T07:46:28;21.20;99.90
9450;DHT22;4763;48.370;10.874;2023-07-28T07:48:55;21.20;99.90
9450;DHT22;4763;48.370;10.874;2023-07-28T07:51:22;21.20;99.90
9450;DHT22;4763;48.370;10.874;2023-07-28T07:53:49;21.30;99.90
9450;DHT22;4763;48.370;10.874;2023-07-28T07:56:16;21.40;99.90
9450;DHT22;4763;48.370;10.874;2023-07-28T07:58:43;21.50;99.90
9450;DHT22;4763;48.370;10.874;2023-07-28T08:01:10;21.60;99.90
9450;DHT22;4763;48.370;10.874;2023-07-28T08:03:39;21.80;99.90
9450;DHT22;4763;48.370;10.874;2023-07-28T08:06:05;22.00;99.90
9450;DHT22;4763;48.370;10.874;2023-07-28T08:08:36;21.90;99.90
9450;DHT22;4763;48.370;10.874;2023-07-28T08:11:05;22.00;99.90
9450;DHT22;4763;48.370;10.874;2023-07-28T08:13:33;21.90;99.90
9450;DHT22;4763;48.370;10.874;2023-07-28T08:16:00;21.90;99.90
9450;DHT22;4763;48.370;10.874;2023-07-28T08:18:26;21.80;99.90
9450;DHT22;4763;48.370;10.874;2023-07-28T08:20:54;21.90;99.90
9450;DHT22;4763;48.370;10.874;2023-07-28T08:23:21;22.00;99.90
9450;DHT22;4763;48.370;10.874;2023-07-28T08:25:48;22.00;99.90
9450;DHT22;4763;48.370;10.874;2023-07-28T08:28:16;22.00;99.90
9450;DHT22;4763;48.370;10.874;2023-07-28T08:30:42;22.00;99.90
9450;DHT22;4763;48.370;10.874;2023-07-28T08:33:09;22.20;99.90
9450;DHT22;4763;48.370;10.874;2023-07-28T08:35:36;22.20;99.90
9450;DHT22;4763;48.370;10.874;2023-07-28T08:38:04;22.40;99.90
9450;DHT22;4763;48.370;10.874;2023-07-28T08:40:31;22.50;99.90
9450;DHT22;4763;48.370;10.874;2023-07-28T08:42:59;22.50;99.90
9450;DHT22;4763;48.370;10.874;2023-07-28T08:45:29;22.60;99.90
9450;DHT22;4763;48.370;10.874;2023-07-28T08:47:56;22.60;99.90
9450;DHT22;4763;48.370;10.874;2023-07-28T08:50:23;22.60;99.90
9450;DHT22;4763;48.370;10.874;2023-07-28T08:52:50;22.70;99.90
9450;DHT22;4763;48.370;10.874;2023-07-28T08:55:18;22.90;99.90
9450;DHT22;4763;48.370;10.874;2023-07-28T08:57:45;23.00;99.90
9450;DHT22;4763;48.370;10.874;2023-07-28T09:00:12;23.00;99.90
9450;DHT22;4763;48.370;10.874;2023-07-28T09:02:40;23.10;99.90
9450;DHT22;4763;48.370;10.874;2023-07-28T09:05:17;23.30;99.90
9450;DHT22;4763;48.370;10.874;2023-07-28T09:07:46;23.60;99.90
9450;DHT22;4763;48.370;10.874;2023-07-28T09:10:13;23.70;99.90
9450;DHT22;4763;48.370;10.874;2023-07-28T09:12:47;23.50;99.90
9450;DHT22;4763;48.370;10.874;2023-07-28T09:15:15;23.50;99.90
9450;DHT22;4763;48.370;10.874;2023-07-28T09:17:43;23.70;99.90
9450;DHT22;4763;48.370;10.874;2023-07-28T09:20:13;23.70;99.90
9450;DHT22;4763;48.370;10.874;2023-07-28T09:22:41;23.60;99.90
9450;DHT22;4763;48.370;10.874;2023-07-28T09:25:12;23.60;99.90
9450;DHT22;4763;48.370;10.874;2023-07-28T09:27:40;23.70;99.90
9450;DHT22;4763;48.370;10.874;2023-07-28T09:30:08;23.70;99.90
9450;DHT22;4763;48.370;10.874;2023-07-28T09:32:35;23.60;99.90
9450;DHT22;4763;48.370;10.874;2023-07-28T09:35:08;23.60;99.90
9450;DHT22;4763;48.370;10.874;2023-07-28T09:37:39;23.50;99.90
9450;DHT22;4763;48.370;10.874;2023-07-28T09:40:08;23.30;99.90
9450;DHT22;4763;48.370;10.874;2023-07-28T09:42:38;23.20;99.90
9450;DHT22;4763;48.370;10.874;2023-07-28T09:45:09;23.20;99.90
9450;DHT22;4763;48.370;10.874;2023-07-28T09:47:37;23.40;99.90
9450;DHT22;4763;48.370;10.874;2023-07-28T09:50:06;23.50;99.90
9450;DHT22;4763;48.370;10.874;2023-07-28T09:52:37;23.70;99.90
9450;DHT22;4763;48.370;10.874;2023-07-28T09:55:06;24.00;99.90
9450;DHT22;4763;48.370;10.874;2023-07-28T09:57:41;24.30;99.90
9450;DHT22;4763;48.370;10.874;2023-07-28T10:00:12;24.10;99.90
9450;DHT22;4763;48.370;10.874;2023-07-28T10:02:39;24.30;99.90
9450;DHT22;4763;48.370;10.874;2023-07-28T10:05:08;24.40;99.90
9450;DHT22;4763;48.370;10.874;2023-07-28T10:07:38;24.60;99.90
9450;DHT22;4763;48.370;10.874;2023-07-28T10:10:06;24.60;99.90
9450;DHT22;4763;48.370;10.874;2023-07-28T10:12:45;24.40;99.90
9450;DHT22;4763;48.370;10.874;2023-07-28T10:19:06;24.00;99.90
9450;DHT22;4763;48.370;10.874;2023-07-28T10:21:44;23.90;99.90
9450;DHT22;4763;48.370;10.874;2023-07-28T10:24:13;23.80;99.90
9450;DHT22;4763;48.370;10.874;2023-07-28T10:26:41;23.70;99.90
9450;DHT22;4763;48.370;10.874;2023-07-28T10:29:14;23.60;99.90
9450;DHT22;4763;48.370;10.874;2023-07-28T10:35:29;23.20;99.90
9450;DHT22;4763;48.370;10.874;2023-07-28T10:37:49;23.10;99.90
9450;DHT22;4763;48.370;10.874;2023-07-28T10:40:37;23.10;99.90
9450;DHT22;4763;48.370;10.874;2023-07-28T10:43:18;23.10;99.90
9450;DHT22;4763;48.370;10.874;2023-07-28T10:45:49;23.10;99.90
9450;DHT22;4763;48.370;10.874;2023-07-28T10:48:16;22.90;99.90
9450;DHT22;4763;48.370;10.874;2023-07-28T10:50:44;22.90;99.90
9450;DHT22;4763;48.370;10.874;2023-07-28T10:53:15;22.80;99.90
9450;DHT22;4763;48.370;10.874;2023-07-28T10:55:42;23.00;99.90
9450;DHT22;4763;48.370;10.874;2023-07-28T10:58:09;23.20;99.90
9450;DHT22;4763;48.370;10.874;2023-07-28T11:00:36;23.50;99.90
9450;DHT22;4763;48.370;10.874;2023-07-28T11:03:03;24.00;99.90
9450;DHT22;4763;48.370;10.874;2023-07-28T11:05:30;24.20;99.90
9450;DHT22;4763;48.370;10.874;2023-07-28T11:08:00;24.60;99.90
9450;DHT22;4763;48.370;10.874;2023-07-28T11:10:29;25.00;99.90
9450;DHT22;4763;48.370;10.874;2023-07-28T11:13:00;24.80;99.90
9450;DHT22;4763;48.370;10.874;2023-07-28T11:15:27;24.60;99.90
9450;DHT22;4763;48.370;10.874;2023-07-28T11:17:54;24.40;99.90
9450;DHT22;4763;48.370;10.874;2023-07-28T11:20:22;24.40;99.90
9450;DHT22;4763;48.370;10.874;2023-07-28T11:22:53;24.40;99.90
9450;DHT22;4763;48.370;10.874;2023-07-28T11:25:22;24.60;99.90
9450;DHT22;4763;48.370;10.874;2023-07-28T11:27:49;24.60;99.90
9450;DHT22;4763;48.370;10.874;2023-07-28T11:30:18;24.80;99.90
9450;DHT22;4763;48.370;10.874;2023-07-28T11:32:47;24.90;99.90
9450;DHT22;4763;48.370;10.874;2023-07-28T11:35:15;25.10;99.90
9450;DHT22;4763;48.370;10.874;2023-07-28T11:37:46;25.30;99.90
9450;DHT22;4763;48.370;10.874;2023-07-28T11:40:15;25.50;99.90
9450;DHT22;4763;48.370;10.874;2023-07-28T11:42:46;25.50;99.90
9450;DHT22;4763;48.370;10.874;2023-07-28T11:45:15;25.60;99.90
9450;DHT22;4763;48.370;10.874;2023-07-28T11:47:52;25.60;99.90
9450;DHT22;4763;48.370;10.874;2023-07-28T11:50:25;25.30;99.90
9450;DHT22;4763;48.370;10.874;2023-07-28T11:52:52;25.30;99.90
9450;DHT22;4763;48.370;10.874;2023-07-28T11:55:19;25.70;99.90
9450;DHT22;4763;48.370;10.874;2023-07-28T11:57:49;25.90;99.90
9450;DHT22;4763;48.370;10.874;2023-07-28T12:00:16;26.30;99.90
9450;DHT22;4763;48.370;10.874;2023-07-28T12:02:44;26.50;99.90
9450;DHT22;4763;48.370;10.874;2023-07-28T12:05:14;26.10;99.90
9450;DHT22;4763;48.370;10.874;2023-07-28T12:07:47;25.70;99.90
9450;DHT22;4763;48.370;10.874;2023-07-28T12:10:14;25.40;99.90
9450;DHT22;4763;48.370;10.874;2023-07-28T12:12:42;25.20;99.90
9450;DHT22;4763;48.370;10.874;2023-07-28T12:15:22;25.10;99.90
9450;DHT22;4763;48.370;10.874;2023-07-28T12:18:06;25.00;99.90
9450;DHT22;4763;48.370;10.874;2023-07-28T12:20:34;24.90;99.90
9450;DHT22;4763;48.370;10.874;2023-07-28T12:23:01;24.80;99.90
9450;DHT22;4763;48.370;10.874;2023-07-28T12:25:29;24.80;99.90
9450;DHT22;4763;48.370;10.874;2023-07-28T12:27:56;24.90;99.90
9450;DHT22;4763;48.370;10.874;2023-07-28T12:30:24;25.10;99.90
9450;DHT22;4763;48.370;10.874;2023-07-28T12:32:51;25.30;99.90
9450;DHT22;4763;48.370;10.874;2023-07-28T12:35:17;25.50;99.90
9450;DHT22;4763;48.370;10.874;2023-07-28T12:37:46;25.60;99.90
9450;DHT22;4763;48.370;10.874;2023-07-28T12:40:13;25.90;99.90
9450;DHT22;4763;48.370;10.874;2023-07-28T12:42:40;25.90;99.90
9450;DHT22;4763;48.370;10.874;2023-07-28T12:45:07;25.90;99.90
9450;DHT22;4763;48.370;10.874;2023-07-28T12:47:35;25.80;99.90
9450;DHT22;4763;48.370;10.874;2023-07-28T12:50:03;25.70;99.90
9450;DHT22;4763;48.370;10.874;2023-07-28T12:52:32;25.50;99.90
9450;DHT22;4763;48.370;10.874;2023-07-28T12:54:58;25.50;99.90
9450;DHT22;4763;48.370;10.874;2023-07-28T12:57:25;25.30;99.90
9450;DHT22;4763;48.370;10.874;2023-07-28T12:59:52;25.00;99.90
9450;DHT22;4763;48.370;10.874;2023-07-28T13:02:19;24.80;99.90
9450;DHT22;4763;48.370;10.874;2023-07-28T13:04:47;24.80;99.90
9450;DHT22;4763;48.370;10.874;2023-07-28T13:07:13;24.60;99.90
9450;DHT22;4763;48.370;10.874;2023-07-28T13:09:40;24.50;99.90
9450;DHT22;4763;48.370;10.874;2023-07-28T13:12:08;24.40;99.90
9450;DHT22;4763;48.370;10.874;2023-07-28T13:14:35;24.30;99.90
9450;DHT22;4763;48.370;10.874;2023-07-28T13:17:01;24.10;99.90
9450;DHT22;4763;48.370;10.874;2023-07-28T13:19:28;23.90;99.90
9450;DHT22;4763;48.370;10.874;2023-07-28T13:21:56;23.70;99.90
9450;DHT22;4763;48.370;10.874;2023-07-28T13:24:23;23.40;99.90
9450;DHT22;4763;48.370;10.874;2023-07-28T13:26:50;23.00;99.90
9450;DHT22;4763;48.370;10.874;2023-07-28T13:29:17;22.70;99.90
9450;DHT22;4763;48.370;10.874;2023-07-28T13:31:44;22.50;99.90
9450;DHT22;4763;48.370;10.874;2023-07-28T13:34:11;22.40;99.90
9450;DHT22;4763;48.370;10.874;2023-07-28T13:36:38;22.40;99.90
9450;DHT22;4763;48.370;10.874;2023-07-28T13:39:06;22.20;99.90
9450;DHT22;4763;48.370;10.874;2023-07-28T13:41:33;22.10;99.90
9450;DHT22;4763;48.370;10.874;2023-07-28T13:44:00;22.00;99.90
9450;DHT22;4763;48.370;10.874;2023-07-28T13:46:26;22.10;99.90
9450;DHT22;4763;48.370;10.874;2023-07-28T13:48:53;22.10;99.90
9450;DHT22;4763;48.370;10.874;2023-07-28T13:51:21;22.10;99.90
9450;DHT22;4763;48.370;10.874;2023-07-28T13:53:47;22.10;99.90
9450;DHT22;4763;48.370;10.874;2023-07-28T13:56:16;22.00;99.90
9450;DHT22;4763;48.370;10.874;2023-07-28T13:58:43;22.00;99.90
9450;DHT22;4763;48.370;10.874;2023-07-28T14:01:09;22.00;99.90
9450;DHT22;4763;48.370;10.874;2023-07-28T14:03:36;22.00;99.90
9450;DHT22;4763;48.370;10.874;2023-07-28T14:06:03;22.00;99.90
9450;DHT22;4763;48.370;10.874;2023-07-28T14:08:30;21.90;99.90
9450;DHT22;4763;48.370;10.874;2023-07-28T14:10:57;22.10;99.90
9450;DHT22;4763;48.370;10.874;2023-07-28T14:13:26;22.20;99.90
9450;DHT22;4763;48.370;10.874;2023-07-28T14:15:52;22.20;99.90
9450;DHT22;4763;48.370;10.874;2023-07-28T14:18:20;22.20;99.90
9450;DHT22;4763;48.370;10.874;2023-07-28T14:20:47;22.20;99.90
9450;DHT22;4763;48.370;10.874;2023-07-28T14:23:25;22.30;99.90
9450;DHT22;4763;48.370;10.874;2023-07-28T14:25:52;22.40;99.90
9450;DHT22;4763;48.370;10.874;2023-07-28T14:28:20;22.40;99.90
9450;DHT22;4763;48.370;10.874;2023-07-28T14:30:49;22.40;99.90
9450;DHT22;4763;48.370;10.874;2023-07-28T14:33:17;22.50;99.90
9450;DHT22;4763;48.370;10.874;2023-07-28T14:35:45;22.50;99.90
9450;DHT22;4763;48.370;10.874;2023-07-28T14:38:12;22.60;99.90
9450;DHT22;4763;48.370;10.874;2023-07-28T14:40:38;22.80;99.90
9450;DHT22;4763;48.370;10.874;2023-07-28T14:43:06;23.00;99.90
9450;DHT22;4763;48.370;10.874;2023-07-28T14:45:32;23.10;99.90
9450;DHT22;4763;48.370;10.874;2023-07-28T14:48:01;23.00;99.90
9450;DHT22;4763;48.370;10.874;2023-07-28T14:50:28;23.10;99.90
9450;DHT22;4763;48.370;10.874;2023-07-28T14:52:57;23.10;99.90
9450;DHT22;4763;48.370;10.874;2023-07-28T14:55:25;23.10;99.90
9450;DHT22;4763;48.370;10.874;2023-07-28T14:57:51;23.00;99.90
9450;DHT22;4763;48.370;10.874;2023-07-28T15:00:18;23.10;99.90
9450;DHT22;4763;48.370;10.874;2023-07-28T15:02:45;23.10;99.90
9450;DHT22;4763;48.370;10.874;2023-07-28T15:05:13;23.10;99.90
9450;DHT22;4763;48.370;10.874;2023-07-28T15:07:40;23.30;99.90
9450;DHT22;4763;48.370;10.874;2023-07-28T15:10:08;23.40;99.90
9450;DHT22;4763;48.370;10.874;2023-07-28T15:12:35;23.40;99.90
9450;DHT22;4763;48.370;10.874;2023-07-28T15:15:02;23.30;99.90
9450;DHT22;4763;48.370;10.874;2023-07-28T15:17:28;23.40;99.90
9450;DHT22;4763;48.370;10.874;2023-07-28T15:19:55;23.40;99.90
9450;DHT22;4763;48.370;10.874;2023-07-28T15:22:23;23.40;99.90
9450;DHT22;4763;48.370;10.874;2023-07-28T15:24:50;23.40;99.90
9450;DHT22;4763;48.370;10.874;2023-07-28T15:27:17;23.40;99.90
9450;DHT22;4763;48.370;10.874;2023-07-28T15:29:44;23.20;99.90
9450;DHT22;4763;48.370;10.874;2023-07-28T15:32:10;23.20;99.90
9450;DHT22;4763;48.370;10.874;2023-07-28T15:34:37;23.10;99.90
9450;DHT22;4763;48.370;10.874;2023-07-28T15:37:04;23.20;99.90
9450;DHT22;4763;48.370;10.874;2023-07-28T15:39:32;23.20;99.90
9450;DHT22;4763;48.370;10.874;2023-07-28T15:41:59;23.20;99.90
9450;DHT22;4763;48.370;10.874;2023-07-28T15:44:26;23.20;99.90
9450;DHT22;4763;48.370;10.874;2023-07-28T15:46:52;23.20;99.90
9450;DHT22;4763;48.370;10.874;2023-07-28T15:49:19;23.20;99.90
9450;DHT22;4763;48.370;10.874;2023-07-28T15:51:46;23.20;99.90
9450;DHT22;4763;48.370;10.874;2023-07-28T15:54:13;23.20;99.90
9450;DHT22;4763;48.370;10.874;2023-07-28T15:56:41;23.30;99.90